createdAt,value
2019-06-20T00:00:37.207Z,66.68
2019-06-20T00:03:09.020Z,66.43
2019-06-20T00:05:52.548Z,66.25
2019-06-20T00:08:42.108Z,66.05
2019-06-20T00:11:12.387Z,65.75
2019-06-20T00:13:41.613Z,65.35
2019-06-20T00:16:11.002Z,65.57
2019-06-20T00:18:40.210Z,65.35
2019-06-20T00:21:12.847Z,65.44
2019-06-20T00:23:45.031Z,65.55
2019-06-20T00:26:16.695Z,65.68
2019-06-20T00:28:55.989Z,65.75
2019-06-20T00:31:31.586Z,65.42
2019-06-20T00:34:04.022Z,65.26
2019-06-20T00:36:33.226Z,65.45
2019-06-20T00:39:10.126Z,65.60
2019-06-20T00:41:41.438Z,65.38
2019-06-20T00:44:10.814Z,65.40
2019-06-20T00:46:40.225Z,65.37
2019-06-20T00:49:09.395Z,65.30
2019-06-20T00:51:38.607Z,65.35
2019-06-20T00:54:07.797Z,65.29
2019-06-20T00:56:37.031Z,65.44
2019-06-20T00:59:06.385Z,65.46
2019-06-20T01:01:35.634Z,65.57
2019-06-20T01:04:10.819Z,65.42
2019-06-20T01:06:40.049Z,65.48
2019-06-20T01:09:09.420Z,65.27
2019-06-20T01:11:38.663Z,66.28
2019-06-20T01:14:07.865Z,66.65
2019-06-20T01:16:38.569Z,66.04
2019-06-20T01:19:09.327Z,66.23
2019-06-20T01:21:38.729Z,65.91
2019-06-20T01:24:09.846Z,65.48
2019-06-20T01:26:40.079Z,65.46
2019-06-20T01:29:09.275Z,65.37
2019-06-20T01:31:40.779Z,65.36
2019-06-20T01:34:13.275Z,65.35
2019-06-20T01:36:42.859Z,65.26
2019-06-20T01:39:11.830Z,65.30
2019-06-20T01:41:41.999Z,64.89
2019-06-20T01:44:11.721Z,64.99
2019-06-20T01:46:42.106Z,65.04
2019-06-20T01:49:11.282Z,65.06
2019-06-20T01:51:41.705Z,65.29
2019-06-20T01:54:11.512Z,65.19
2019-06-20T01:56:41.324Z,65.23
2019-06-20T01:59:10.648Z,65.26
2019-06-20T02:01:39.845Z,65.25
2019-06-20T02:04:09.041Z,65.28
2019-06-20T02:06:38.670Z,65.41
2019-06-20T02:09:09.070Z,65.32
2019-06-20T02:11:38.492Z,66.23
2019-06-20T02:14:07.881Z,66.84
2019-06-20T02:16:38.006Z,66.82
2019-06-20T02:19:07.540Z,66.77
2019-06-20T02:21:36.423Z,67.05
2019-06-20T02:24:07.189Z,66.61
2019-06-20T02:26:36.505Z,66.81
2019-06-20T02:29:09.635Z,67.23
2019-06-20T02:31:40.431Z,66.67
2019-06-20T02:34:10.345Z,66.82
2019-06-20T02:36:39.570Z,67.34
2019-06-20T02:39:10.509Z,67.52
2019-06-20T02:41:42.114Z,67.48
2019-06-20T02:44:29.334Z,67.54
2019-06-20T02:46:46.307Z,67.04
2019-06-20T02:49:16.478Z,67.27
2019-06-20T02:51:49.085Z,67.92
2019-06-20T02:54:20.614Z,67.47
2019-06-20T02:56:54.564Z,67.37
2019-06-20T02:59:26.211Z,67.74
2019-06-20T03:01:55.457Z,67.66
2019-06-20T03:04:25.125Z,67.34
2019-06-20T03:06:54.380Z,67.42
2019-06-20T03:09:23.606Z,67.29
2019-06-20T03:11:54.732Z,67.37
2019-06-20T03:14:25.315Z,67.40
2019-06-20T03:16:54.503Z,67.13
2019-06-20T03:19:23.774Z,67.02
2019-06-20T03:21:53.015Z,66.79
2019-06-20T03:24:22.251Z,66.63
2019-06-20T03:26:51.517Z,66.75
2019-06-20T03:29:20.707Z,66.58
2019-06-20T03:31:51.705Z,66.80
2019-06-20T03:34:24.224Z,66.59
2019-06-20T03:36:53.459Z,66.75
2019-06-20T03:39:22.751Z,67.44
2019-06-20T03:41:55.042Z,67.14
2019-06-20T03:44:24.278Z,66.92
2019-06-20T03:46:53.520Z,66.72
2019-06-20T03:49:23.019Z,66.68
2019-06-20T03:51:52.185Z,66.81
2019-06-20T03:54:21.363Z,67.60
2019-06-20T03:56:51.739Z,67.14
2019-06-20T03:59:21.005Z,67.01
2019-06-20T04:01:50.180Z,66.86
2019-06-20T04:04:19.776Z,66.89
2019-06-20T04:06:48.252Z,66.85
2019-06-20T04:09:17.586Z,66.70
2019-06-20T04:11:46.917Z,66.78
2019-06-20T04:14:16.157Z,66.89
2019-06-20T04:16:46.692Z,67.01
2019-06-20T04:19:17.354Z,67.12
2019-06-20T04:21:47.665Z,67.00
2019-06-20T04:24:16.926Z,67.24
2019-06-20T04:26:47.278Z,67.30
2019-06-20T04:29:16.501Z,67.69
2019-06-20T04:31:46.990Z,67.41
2019-06-20T04:34:16.222Z,67.29
2019-06-20T04:36:48.159Z,67.17
2019-06-20T04:39:19.550Z,67.59
2019-06-20T04:41:48.431Z,67.38
2019-06-20T04:44:19.327Z,67.36
2019-06-20T04:46:56.030Z,67.26
2019-06-20T04:49:25.749Z,67.06
2019-06-20T04:51:56.550Z,67.03
2019-06-20T04:54:25.835Z,67.02
2019-06-20T04:56:55.114Z,66.95
2019-06-20T04:59:24.333Z,67.06
2019-06-20T05:01:53.955Z,66.98
2019-06-20T05:04:24.150Z,67.17
2019-06-20T05:07:05.636Z,67.13
2019-06-20T05:09:35.299Z,67.08
2019-06-20T05:12:03.748Z,67.12
2019-06-20T05:14:33.261Z,66.77
2019-06-20T05:17:06.289Z,67.18
2019-06-20T05:19:33.431Z,67.02
2019-06-20T05:22:02.674Z,67.60
2019-06-20T05:24:31.991Z,67.63
2019-06-20T05:27:23.476Z,67.48
2019-06-20T05:29:52.676Z,67.43
2019-06-20T05:32:22.436Z,67.40
2019-06-20T05:34:51.788Z,67.57
2019-06-20T05:37:20.993Z,67.96
2019-06-20T05:39:50.153Z,68.09
2019-06-20T05:42:19.365Z,68.13
2019-06-20T05:44:48.545Z,68.10
2019-06-20T05:47:17.965Z,68.39
2019-06-20T05:49:47.366Z,68.07
2019-06-20T05:52:17.374Z,68.12
2019-06-20T05:54:46.636Z,68.17
2019-06-20T05:57:16.155Z,68.14
2019-06-20T05:59:45.049Z,68.30
2019-06-20T06:02:14.173Z,67.81
2019-06-20T06:04:44.001Z,67.80
2019-06-20T06:07:14.350Z,68.00
2019-06-20T06:09:43.623Z,67.91
2019-06-20T06:12:12.939Z,68.00
2019-06-20T06:14:42.093Z,68.12
2019-06-20T06:17:11.492Z,68.40
2019-06-20T06:19:40.717Z,68.23
2019-06-20T06:22:09.897Z,68.23
2019-06-20T06:24:40.118Z,68.14
2019-06-20T06:27:09.376Z,68.16
2019-06-20T06:29:39.007Z,68.15
2019-06-20T06:32:09.253Z,68.10
2019-06-20T06:34:38.654Z,67.86
2019-06-20T06:37:07.906Z,68.21
2019-06-20T06:39:42.683Z,68.06
2019-06-20T06:42:10.859Z,67.85
2019-06-20T06:44:41.020Z,67.97
2019-06-20T06:47:10.487Z,67.83
2019-06-20T06:49:40.883Z,67.97
2019-06-20T06:52:10.609Z,67.76
2019-06-20T06:54:40.854Z,67.69
2019-06-20T06:57:10.322Z,67.62
2019-06-20T06:59:39.603Z,67.50
2019-06-20T07:02:08.895Z,67.67
2019-06-20T07:04:42.027Z,67.61
2019-06-20T07:07:11.298Z,67.95
2019-06-20T07:09:40.615Z,67.68
2019-06-20T07:12:09.916Z,67.69
2019-06-20T07:14:42.725Z,67.69
2019-06-20T07:17:12.585Z,67.83
2019-06-20T07:19:42.778Z,68.08
2019-06-20T07:22:12.110Z,68.02
2019-06-20T07:24:42.532Z,67.74
2019-06-20T07:27:13.583Z,67.64
2019-06-20T07:29:44.406Z,67.58
2019-06-20T07:32:13.743Z,67.29
2019-06-20T07:34:42.463Z,67.69
2019-06-20T07:37:12.292Z,67.39
2019-06-20T07:39:42.363Z,67.43
2019-06-20T07:42:11.695Z,67.39
2019-06-20T07:44:41.063Z,67.05
2019-06-20T07:47:17.642Z,67.04
2019-06-20T07:49:43.919Z,67.19
2019-06-20T07:52:13.348Z,67.26
2019-06-20T07:54:43.191Z,67.06
2019-06-20T07:57:14.170Z,67.43
2019-06-20T07:59:45.062Z,67.70
2019-06-20T08:02:15.816Z,67.87
2019-06-20T08:04:45.004Z,67.87
2019-06-20T08:07:16.107Z,67.85
2019-06-20T08:10:10.443Z,67.89
2019-06-20T08:12:40.062Z,67.69
2019-06-20T08:15:15.612Z,67.50
2019-06-20T08:17:47.011Z,67.39
2019-06-20T08:20:17.217Z,67.61
2019-06-20T08:22:46.579Z,67.78
2019-06-20T08:25:18.247Z,68.10
2019-06-20T08:27:50.913Z,67.56
2019-06-20T08:30:31.815Z,67.65
2019-06-20T08:33:04.391Z,67.76
2019-06-20T08:35:32.943Z,67.57
2019-06-20T08:38:05.401Z,67.49
2019-06-20T08:40:46.410Z,67.58
2019-06-20T08:43:16.028Z,67.89
2019-06-20T08:45:46.783Z,68.00
2019-06-20T08:48:16.113Z,68.08
2019-06-20T08:50:47.152Z,68.04
2019-06-20T08:53:21.173Z,67.91
2019-06-20T08:55:50.490Z,67.30
2019-06-20T08:58:20.049Z,67.05
2019-06-20T09:00:48.767Z,66.99
2019-06-20T09:03:18.397Z,67.05
2019-06-20T09:05:49.418Z,66.84
2019-06-20T09:08:18.791Z,67.03
2019-06-20T09:10:47.308Z,66.21
2019-06-20T09:13:19.543Z,66.73
2019-06-20T09:15:50.346Z,67.04
2019-06-20T09:18:21.611Z,67.23
2019-06-20T09:20:52.754Z,67.35
2019-06-20T09:23:22.402Z,67.49
2019-06-20T09:25:53.278Z,67.64
2019-06-20T09:28:22.747Z,67.80
2019-06-20T09:30:53.556Z,68.03
2019-06-20T09:33:23.170Z,67.84
2019-06-20T09:35:53.996Z,67.81
2019-06-20T09:38:25.082Z,67.87
2019-06-20T09:40:54.842Z,67.69
2019-06-20T09:43:27.814Z,66.75
2019-06-20T09:45:56.091Z,66.54
2019-06-20T09:48:27.980Z,66.62
2019-06-20T09:50:58.532Z,66.80
2019-06-20T09:53:28.819Z,66.95
2019-06-20T09:55:58.053Z,67.61
2019-06-20T09:58:29.201Z,68.78
2019-06-20T10:00:58.592Z,68.94
2019-06-20T10:03:27.281Z,69.37
2019-06-20T10:05:57.722Z,69.66
2019-06-20T10:08:26.967Z,69.83
2019-06-20T10:10:56.325Z,69.71
2019-06-20T10:13:25.625Z,69.59
2019-06-20T10:15:55.672Z,69.45
2019-06-20T10:18:24.945Z,68.97
2019-06-20T10:20:54.128Z,68.32
2019-06-20T10:23:23.364Z,67.83
2019-06-20T10:25:53.836Z,67.62
2019-06-20T10:28:23.335Z,68.03
2019-06-20T10:30:53.353Z,67.44
2019-06-20T10:33:22.661Z,67.63
2019-06-20T10:35:53.743Z,68.04
2019-06-20T10:38:22.941Z,68.35
2019-06-20T10:40:53.230Z,68.53
2019-06-20T10:43:24.933Z,68.74
2019-06-20T10:45:54.241Z,68.48
2019-06-20T10:48:24.122Z,67.59
2019-06-20T10:50:54.934Z,66.93
2019-06-20T10:53:24.616Z,66.82
2019-06-20T10:55:53.865Z,66.42
2019-06-20T10:58:23.052Z,65.23
2019-06-20T11:00:52.281Z,65.71
2019-06-20T11:03:21.435Z,65.36
2019-06-20T11:05:51.136Z,65.49
2019-06-20T11:08:22.205Z,65.35
2019-06-20T11:10:51.436Z,65.31
2019-06-20T11:13:20.743Z,64.50
2019-06-20T11:15:51.181Z,64.13
2019-06-20T11:18:20.553Z,64.33
2019-06-20T11:20:49.790Z,64.99
2019-06-20T11:23:20.810Z,64.23
2019-06-20T11:25:51.665Z,63.52
2019-06-20T11:28:24.529Z,63.72
2019-06-20T11:31:00.459Z,63.83
2019-06-20T11:33:30.882Z,64.30
2019-06-20T11:36:03.607Z,63.65
2019-06-20T11:38:33.024Z,62.72
2019-06-20T11:41:04.060Z,62.26
2019-06-20T11:43:34.609Z,62.75
2019-06-20T11:46:06.088Z,61.98
2019-06-20T11:48:36.774Z,62.16
2019-06-20T11:51:06.456Z,62.08
2019-06-20T11:53:36.570Z,62.09
2019-06-20T11:56:09.098Z,62.15
2019-06-20T11:58:38.439Z,60.92
2019-06-20T12:01:07.706Z,61.32
2019-06-20T12:03:39.611Z,61.51
2019-06-20T12:06:09.956Z,61.17
2019-06-20T12:08:40.698Z,61.06
2019-06-20T12:11:09.993Z,59.81
2019-06-20T12:13:40.420Z,59.24
2019-06-20T12:16:15.482Z,58.76
2019-06-20T12:18:45.191Z,57.70
2019-06-20T12:21:14.385Z,58.58
2019-06-20T12:23:47.385Z,59.55
2019-06-20T12:26:16.290Z,60.00
2019-06-20T12:28:47.126Z,59.32
2019-06-20T12:31:19.758Z,59.16
2019-06-20T12:33:49.552Z,59.59
2019-06-20T12:36:22.572Z,60.71
2019-06-20T12:38:57.252Z,60.74
2019-06-20T12:41:29.711Z,60.09
2019-06-20T12:43:59.832Z,59.59
2019-06-20T12:46:30.662Z,59.78
2019-06-20T12:49:03.487Z,60.34
2019-06-20T12:51:37.309Z,59.76
2019-06-20T12:54:08.048Z,58.76
2019-06-20T12:56:38.656Z,59.38
2019-06-20T12:59:08.993Z,59.91
2019-06-20T13:01:42.558Z,59.76
2019-06-20T13:04:10.350Z,59.96
2019-06-20T13:06:42.247Z,60.02
2019-06-20T13:09:11.994Z,59.16
2019-06-20T13:11:42.426Z,59.08
2019-06-20T13:14:15.973Z,59.19
2019-06-20T13:16:46.045Z,59.30
2019-06-20T13:19:15.567Z,59.27
2019-06-20T13:21:46.492Z,58.82
2019-06-20T13:24:15.915Z,57.27
2019-06-20T13:26:48.898Z,56.69
2019-06-20T13:29:17.797Z,57.84
2019-06-20T13:32:01.905Z,58.04
2019-06-20T13:34:20.760Z,57.79
2019-06-20T13:36:53.525Z,57.68
2019-06-20T13:39:23.452Z,57.25
2019-06-20T13:41:54.086Z,58.21
2019-06-20T13:44:23.994Z,58.80
2019-06-20T13:46:53.698Z,58.88
2019-06-20T13:49:26.639Z,58.69
2019-06-20T13:52:00.463Z,58.63
2019-06-20T13:54:29.742Z,58.53
2019-06-20T13:57:02.319Z,58.97
2019-06-20T13:59:31.594Z,58.08
2019-06-20T14:02:06.625Z,58.46
2019-06-20T14:04:34.401Z,58.53
2019-06-20T14:07:04.298Z,58.42
2019-06-20T14:09:33.535Z,58.09
2019-06-20T14:12:02.163Z,57.58
2019-06-20T14:14:31.799Z,57.95
2019-06-20T14:17:04.954Z,57.63
2019-06-20T14:19:36.100Z,56.91
2019-06-20T14:22:08.215Z,57.56
2019-06-20T14:24:43.428Z,57.35
2019-06-20T14:27:12.651Z,57.36
2019-06-20T14:29:43.715Z,56.62
2019-06-20T14:32:22.230Z,57.44
2019-06-20T14:34:47.283Z,57.26
2019-06-20T14:37:18.510Z,56.31
2019-06-20T14:39:47.699Z,56.41
2019-06-20T14:42:17.036Z,56.70
2019-06-20T14:44:47.654Z,57.29
2019-06-20T14:47:17.016Z,57.54
2019-06-20T14:49:45.562Z,56.37
2019-06-20T14:52:15.044Z,57.08
2019-06-20T14:54:46.296Z,56.35
2019-06-20T14:57:16.931Z,55.73
2019-06-20T14:59:48.371Z,57.00
2019-06-20T15:02:18.004Z,56.28
2019-06-20T15:04:49.810Z,56.61
2019-06-20T15:07:19.422Z,57.13
2019-06-20T15:09:51.370Z,56.35
2019-06-20T15:12:20.684Z,56.20
2019-06-20T15:14:51.394Z,56.24
2019-06-20T15:17:21.676Z,55.55
2019-06-20T15:19:51.432Z,55.94
2019-06-20T15:22:20.699Z,55.69
2019-06-20T15:24:53.222Z,55.22
2019-06-20T15:27:23.312Z,55.43
2019-06-20T15:29:54.445Z,55.76
2019-06-20T15:32:24.078Z,55.03
2019-06-20T15:34:53.351Z,55.94
2019-06-20T15:37:25.239Z,55.71
2019-06-20T15:39:55.428Z,56.20
2019-06-20T15:42:24.763Z,56.25
2019-06-20T15:44:54.001Z,56.18
2019-06-20T15:47:23.215Z,56.37
2019-06-20T15:49:52.624Z,56.27
2019-06-20T15:52:21.305Z,55.48
2019-06-20T15:54:50.551Z,56.33
2019-06-20T15:57:22.218Z,56.03
2019-06-20T15:59:51.529Z,56.30
2019-06-20T16:02:20.059Z,56.14
2019-06-20T16:04:49.765Z,55.63
2019-06-20T16:07:20.305Z,55.32
2019-06-20T16:09:49.580Z,55.37
2019-06-20T16:12:19.112Z,55.30
2019-06-20T16:14:48.804Z,56.25
2019-06-20T16:19:46.421Z,55.57
2019-06-20T16:22:15.643Z,55.59
2019-06-20T16:24:45.949Z,53.86
2019-06-20T16:27:17.180Z,55.14
2019-06-20T16:29:46.411Z,55.22
2019-06-20T16:32:15.656Z,55.50
2019-06-20T16:34:46.429Z,55.45
2019-06-20T16:37:15.766Z,55.49
2019-06-20T16:39:44.393Z,55.22
2019-06-20T16:42:13.548Z,55.80
2019-06-20T16:44:42.801Z,54.63
2019-06-20T16:47:11.491Z,54.53
2019-06-20T16:49:40.751Z,54.79
2019-06-20T16:52:09.274Z,54.88
2019-06-20T16:54:41.181Z,54.88
2019-06-20T16:57:11.501Z,54.63
2019-06-20T16:59:40.792Z,55.68
2019-06-20T17:02:11.222Z,55.43
2019-06-20T17:04:42.292Z,55.39
2019-06-20T17:07:11.471Z,54.63
2019-06-20T17:09:43.336Z,54.36
2019-06-20T17:12:12.667Z,54.43
2019-06-20T17:14:41.346Z,54.23
2019-06-20T17:17:10.639Z,54.53
2019-06-20T17:19:42.041Z,53.60
2019-06-20T17:22:11.135Z,54.25
2019-06-20T17:24:40.325Z,54.17
2019-06-20T17:27:10.035Z,53.48
2019-06-20T17:29:39.295Z,53.71
2019-06-20T17:32:08.546Z,53.23
2019-06-20T17:34:37.805Z,53.57
2019-06-20T17:37:07.339Z,53.92
2019-06-20T17:39:37.066Z,53.96
2019-06-20T17:42:06.666Z,53.37
2019-06-20T17:44:37.287Z,53.62
2019-06-20T17:47:06.542Z,53.89
2019-06-20T17:49:35.936Z,53.80
2019-06-20T17:52:04.553Z,52.73
2019-06-20T17:54:33.775Z,53.88
2019-06-20T17:57:04.965Z,53.53
2019-06-20T17:59:34.533Z,53.83
2019-06-20T18:02:24.108Z,54.01
2019-06-20T18:04:55.028Z,53.74
2019-06-20T18:07:27.429Z,54.13
2019-06-20T18:09:56.735Z,54.28
2019-06-20T18:12:26.853Z,54.45
2019-06-20T18:14:56.067Z,54.34
2019-06-20T18:17:25.382Z,54.25
2019-06-20T18:19:54.970Z,54.56
2019-06-20T18:22:24.487Z,54.59
2019-06-20T18:24:53.701Z,54.54
2019-06-20T18:27:24.839Z,54.84
2019-06-20T18:29:55.186Z,54.76
2019-06-20T18:32:25.745Z,55.20
2019-06-20T18:35:01.742Z,54.91
2019-06-20T18:37:31.785Z,55.39
2019-06-20T18:40:02.752Z,55.66
2019-06-20T18:42:35.530Z,55.66
2019-06-20T18:45:08.662Z,55.67
2019-06-20T18:47:38.957Z,55.81
2019-06-20T18:50:08.639Z,55.77
2019-06-20T18:52:50.962Z,55.91
2019-06-20T18:55:10.394Z,56.01
2019-06-20T18:57:42.062Z,55.96
2019-06-20T19:00:12.965Z,56.01
2019-06-20T19:02:43.342Z,56.20
2019-06-20T19:05:15.017Z,56.45
2019-06-20T19:07:44.989Z,56.57
2019-06-20T19:10:19.425Z,56.59
2019-06-20T19:12:48.790Z,56.52
2019-06-20T19:15:24.282Z,56.53
2019-06-20T19:17:55.217Z,56.57
2019-06-20T19:20:25.353Z,56.63
2019-06-20T19:23:00.046Z,56.46
2019-06-20T19:25:40.000Z,56.46
2019-06-20T19:28:09.344Z,56.55
2019-06-20T19:30:57.855Z,56.66
2019-06-20T19:33:27.085Z,56.84
2019-06-20T19:35:56.295Z,57.00
2019-06-20T19:38:25.484Z,57.18
2019-06-20T19:40:54.670Z,57.22
2019-06-20T19:43:23.859Z,57.13
2019-06-20T19:45:53.049Z,57.12
2019-06-20T19:48:22.247Z,57.21
2019-06-20T19:50:51.481Z,57.24
2019-06-20T19:53:20.700Z,57.17
2019-06-20T19:55:49.872Z,57.20
2019-06-20T19:58:19.081Z,57.25
2019-06-20T20:00:48.292Z,57.27
2019-06-20T20:03:17.529Z,57.28
2019-06-20T20:05:46.829Z,57.27
2019-06-20T20:08:16.159Z,57.32
2019-06-20T20:10:47.152Z,57.40
2019-06-20T20:13:17.069Z,57.43
2019-06-20T20:15:46.868Z,57.61
2019-06-20T20:18:16.387Z,57.66
2019-06-20T20:20:47.526Z,57.85
2019-06-20T20:23:16.734Z,57.76
2019-06-20T20:25:49.585Z,57.72
2019-06-20T20:28:18.815Z,57.83
2019-06-20T20:30:48.033Z,57.80
2019-06-20T20:33:18.435Z,57.84
2019-06-20T20:35:54.137Z,57.91
2019-06-20T20:38:23.409Z,58.07
2019-06-20T20:40:59.223Z,58.06
2019-06-20T20:43:28.459Z,58.02
2019-06-20T20:45:57.625Z,58.01
2019-06-20T20:48:27.067Z,58.16
2019-06-20T20:50:56.222Z,58.41
2019-06-20T20:53:25.485Z,58.56
2019-06-20T20:55:57.698Z,58.50
2019-06-20T20:58:27.139Z,58.38
2019-06-20T21:01:05.275Z,58.45
2019-06-20T21:03:34.523Z,58.73
2019-06-20T21:06:05.561Z,58.84
2019-06-20T21:08:35.123Z,58.90
2019-06-20T21:11:04.397Z,59.14
2019-06-20T21:13:37.347Z,59.08
2019-06-20T21:16:10.916Z,58.97
2019-06-20T21:18:40.633Z,58.85
2019-06-20T21:21:10.041Z,58.87
2019-06-20T21:23:42.484Z,58.70
2019-06-20T21:26:12.609Z,58.74
2019-06-20T21:28:41.743Z,58.77
2019-06-20T21:31:10.882Z,58.87
2019-06-20T21:33:39.992Z,58.98
2019-06-20T21:36:09.497Z,59.06
2019-06-20T21:38:37.931Z,59.11
2019-06-20T21:41:07.001Z,58.96
2019-06-20T21:43:39.331Z,59.05
2019-06-20T21:46:25.627Z,59.13
2019-06-20T21:48:54.798Z,59.18
2019-06-20T21:51:30.280Z,59.27
2019-06-20T21:53:59.687Z,59.37
2019-06-20T21:56:28.802Z,59.55
2019-06-20T21:59:02.316Z,59.66
2019-06-20T22:01:43.784Z,59.73
2019-06-20T22:04:19.235Z,59.68
2019-06-20T22:06:48.368Z,59.68
2019-06-20T22:09:17.489Z,59.67
2019-06-20T22:11:46.624Z,59.54
2019-06-20T22:14:16.059Z,59.54
2019-06-20T22:16:45.180Z,59.46
2019-06-20T22:19:14.331Z,59.41
2019-06-20T22:21:43.472Z,59.55
2019-06-20T22:24:12.643Z,59.73
2019-06-20T22:26:41.779Z,59.58
2019-06-20T22:29:10.897Z,59.63
2019-06-20T22:31:40.024Z,59.81
2019-06-20T22:34:09.161Z,59.91
2019-06-20T22:36:40.555Z,59.96
2019-06-20T22:39:09.837Z,59.97
2019-06-20T22:41:38.982Z,60.03
2019-06-20T22:44:08.104Z,60.15
2019-06-20T22:46:37.222Z,60.33
2019-06-20T22:49:06.355Z,60.22
2019-06-20T22:51:35.493Z,60.17
2019-06-20T22:54:04.614Z,60.17
2019-06-20T22:56:33.747Z,60.17
2019-06-20T22:59:02.878Z,60.20
2019-06-20T23:01:31.994Z,60.22
2019-06-20T23:04:01.128Z,60.33
2019-06-20T23:06:30.252Z,60.42
2019-06-20T23:08:59.366Z,60.50
2019-06-20T23:11:28.502Z,60.55
2019-06-20T23:13:57.611Z,60.53
2019-06-20T23:16:26.732Z,60.53
2019-06-20T23:18:55.858Z,60.57
2019-06-20T23:21:25.045Z,60.55
2019-06-20T23:23:54.151Z,60.56
2019-06-20T23:26:23.357Z,60.64
2019-06-20T23:29:10.285Z,60.65
2019-06-20T23:31:39.416Z,60.76
2019-06-20T23:34:08.538Z,60.72
2019-06-20T23:36:37.648Z,60.87
2019-06-20T23:39:07.158Z,61.02
2019-06-20T23:41:35.532Z,61.00
2019-06-20T23:44:04.667Z,60.82
2019-06-20T23:46:33.821Z,61.16
2019-06-20T23:49:02.943Z,61.25
2019-06-20T23:51:33.718Z,61.57
2019-06-20T23:54:02.883Z,61.83
2019-06-20T23:56:31.994Z,61.86
2019-06-20T23:59:01.112Z,61.91
